sensor_id;sensor_type;location;lat;lon;timestamp;temperature;humidity
22235;DHT22;11286;45.596;5.284;2022-07-23T00:01:58;26.40;1.00
22235;DHT22;11286;45.596;5.284;2022-07-23T00:04:23;26.20;1.00
22235;DHT22;11286;45.596;5.284;2022-07-23T00:06:49;26.00;1.00
22235;DHT22;11286;45.596;5.284;2022-07-23T00:09:14;25.90;1.00
22235;DHT22;11286;45.596;5.284;2022-07-23T00:11:40;26.20;1.00
22235;DHT22;11286;45.596;5.284;2022-07-23T00:14:06;26.40;1.00
22235;DHT22;11286;45.596;5.284;2022-07-23T00:16:31;26.20;1.00
22235;DHT22;11286;45.596;5.284;2022-07-23T00:18:57;26.10;1.00
22235;DHT22;11286;45.596;5.284;2022-07-23T00:21:22;25.90;1.00
22235;DHT22;11286;45.596;5.284;2022-07-23T00:23:48;25.60;1.00
22235;DHT22;11286;45.596;5.284;2022-07-23T00:26:14;25.50;1.00
22235;DHT22;11286;45.596;5.284;2022-07-23T00:28:39;25.80;1.00
22235;DHT22;11286;45.596;5.284;2022-07-23T00:31:05;25.80;1.00
22235;DHT22;11286;45.596;5.284;2022-07-23T00:33:30;25.90;1.00
22235;DHT22;11286;45.596;5.284;2022-07-23T00:35:56;26.10;1.00
22235;DHT22;11286;45.596;5.284;2022-07-23T00:38:22;25.40;1.00
22235;DHT22;11286;45.596;5.284;2022-07-23T00:40:47;25.80;1.00
22235;DHT22;11286;45.596;5.284;2022-07-23T00:43:13;25.90;1.00
22235;DHT22;11286;45.596;5.284;2022-07-23T00:45:38;24.90;1.00
22235;DHT22;11286;45.596;5.284;2022-07-23T00:48:04;24.70;1.00
22235;DHT22;11286;45.596;5.284;2022-07-23T00:50:30;24.90;1.00
22235;DHT22;11286;45.596;5.284;2022-07-23T00:52:55;25.10;1.00
22235;DHT22;11286;45.596;5.284;2022-07-23T00:55:21;25.10;1.00
22235;DHT22;11286;45.596;5.284;2022-07-23T00:57:47;25.20;1.00
22235;DHT22;11286;45.596;5.284;2022-07-23T01:00:14;24.70;1.00
22235;DHT22;11286;45.596;5.284;2022-07-23T01:02:40;24.50;1.00
22235;DHT22;11286;45.596;5.284;2022-07-23T01:05:06;24.60;1.00
22235;DHT22;11286;45.596;5.284;2022-07-23T01:07:33;24.70;1.00
22235;DHT22;11286;45.596;5.284;2022-07-23T01:09:58;24.80;1.00
22235;DHT22;11286;45.596;5.284;2022-07-23T01:12:24;24.80;1.00
22235;DHT22;11286;45.596;5.284;2022-07-23T01:14:54;24.70;1.00
22235;DHT22;11286;45.596;5.284;2022-07-23T01:17:20;24.70;1.00
22235;DHT22;11286;45.596;5.284;2022-07-23T01:19:46;24.70;1.00
22235;DHT22;11286;45.596;5.284;2022-07-23T01:22:11;24.30;1.00
22235;DHT22;11286;45.596;5.284;2022-07-23T01:24:37;24.50;1.00
22235;DHT22;11286;45.596;5.284;2022-07-23T01:27:03;24.40;1.00
22235;DHT22;11286;45.596;5.284;2022-07-23T01:29:30;24.30;1.00
22235;DHT22;11286;45.596;5.284;2022-07-23T01:31:56;24.50;1.00
22235;DHT22;11286;45.596;5.284;2022-07-23T01:34:22;24.30;1.00
22235;DHT22;11286;45.596;5.284;2022-07-23T01:36:47;24.20;1.00
22235;DHT22;11286;45.596;5.284;2022-07-23T01:39:13;24.30;1.00
22235;DHT22;11286;45.596;5.284;2022-07-23T01:41:39;24.30;1.00
22235;DHT22;11286;45.596;5.284;2022-07-23T01:44:04;24.40;1.00
22235;DHT22;11286;45.596;5.284;2022-07-23T01:46:30;24.50;1.00
22235;DHT22;11286;45.596;5.284;2022-07-23T01:48:55;24.40;1.00
22235;DHT22;11286;45.596;5.284;2022-07-23T01:51:21;24.40;1.00
22235;DHT22;11286;45.596;5.284;2022-07-23T01:53:47;24.50;1.00
22235;DHT22;11286;45.596;5.284;2022-07-23T01:56:12;24.50;1.00
22235;DHT22;11286;45.596;5.284;2022-07-23T01:58:40;24.30;1.00
22235;DHT22;11286;45.596;5.284;2022-07-23T02:01:06;24.50;1.00
22235;DHT22;11286;45.596;5.284;2022-07-23T02:03:32;24.40;1.00
22235;DHT22;11286;45.596;5.284;2022-07-23T02:05:57;24.30;1.00
22235;DHT22;11286;45.596;5.284;2022-07-23T02:08:23;24.50;1.00
22235;DHT22;11286;45.596;5.284;2022-07-23T02:10:48;24.60;1.00
22235;DHT22;11286;45.596;5.284;2022-07-23T02:13:16;24.40;1.00
22235;DHT22;11286;45.596;5.284;2022-07-23T02:15:42;24.40;1.00
22235;DHT22;11286;45.596;5.284;2022-07-23T02:18:08;24.50;1.00
22235;DHT22;11286;45.596;5.284;2022-07-23T02:20:34;24.50;1.00
22235;DHT22;11286;45.596;5.284;2022-07-23T02:23:00;24.40;1.00
22235;DHT22;11286;45.596;5.284;2022-07-23T02:25:26;24.50;1.00
22235;DHT22;11286;45.596;5.284;2022-07-23T02:27:51;24.70;1.00
22235;DHT22;11286;45.596;5.284;2022-07-23T02:30:17;24.60;1.00
22235;DHT22;11286;45.596;5.284;2022-07-23T02:32:42;24.70;1.00
22235;DHT22;11286;45.596;5.284;2022-07-23T02:35:08;24.60;1.00
22235;DHT22;11286;45.596;5.284;2022-07-23T02:37:34;24.60;1.00
22235;DHT22;11286;45.596;5.284;2022-07-23T02:39:59;24.60;1.00
22235;DHT22;11286;45.596;5.284;2022-07-23T02:42:26;24.40;1.00
22235;DHT22;11286;45.596;5.284;2022-07-23T02:44:52;24.10;1.00
22235;DHT22;11286;45.596;5.284;2022-07-23T02:47:17;24.00;1.00
22235;DHT22;11286;45.596;5.284;2022-07-23T02:49:43;24.10;1.00
22235;DHT22;11286;45.596;5.284;2022-07-23T02:52:09;24.20;1.00
22235;DHT22;11286;45.596;5.284;2022-07-23T02:54:38;24.30;1.00
22235;DHT22;11286;45.596;5.284;2022-07-23T02:57:04;24.50;1.00
22235;DHT22;11286;45.596;5.284;2022-07-23T02:59:30;24.40;1.00
22235;DHT22;11286;45.596;5.284;2022-07-23T03:01:55;24.40;1.00
22235;DHT22;11286;45.596;5.284;2022-07-23T03:04:21;24.40;1.00
22235;DHT22;11286;45.596;5.284;2022-07-23T03:06:47;24.40;1.00
22235;DHT22;11286;45.596;5.284;2022-07-23T03:09:12;24.30;1.00
22235;DHT22;11286;45.596;5.284;2022-07-23T03:11:38;24.20;1.00
22235;DHT22;11286;45.596;5.284;2022-07-23T03:14:03;24.20;1.00
22235;DHT22;11286;45.596;5.284;2022-07-23T03:16:29;24.10;1.00
22235;DHT22;11286;45.596;5.284;2022-07-23T03:18:54;24.20;1.00
22235;DHT22;11286;45.596;5.284;2022-07-23T03:21:20;24.20;1.00
22235;DHT22;11286;45.596;5.284;2022-07-23T03:23:46;24.30;1.00
22235;DHT22;11286;45.596;5.284;2022-07-23T03:26:11;24.10;1.00
22235;DHT22;11286;45.596;5.284;2022-07-23T03:28:37;24.10;1.00
22235;DHT22;11286;45.596;5.284;2022-07-23T03:31:02;24.10;1.00
22235;DHT22;11286;45.596;5.284;2022-07-23T03:33:28;23.70;1.00
22235;DHT22;11286;45.596;5.284;2022-07-23T03:35:54;23.80;1.00
22235;DHT22;11286;45.596;5.284;2022-07-23T03:38:19;23.90;1.00
22235;DHT22;11286;45.596;5.284;2022-07-23T03:40:45;24.00;1.00
22235;DHT22;11286;45.596;5.284;2022-07-23T03:43:10;24.00;1.00
22235;DHT22;11286;45.596;5.284;2022-07-23T03:45:36;24.00;1.00
22235;DHT22;11286;45.596;5.284;2022-07-23T03:48:02;24.00;1.00
22235;DHT22;11286;45.596;5.284;2022-07-23T03:50:27;23.90;1.00
22235;DHT22;11286;45.596;5.284;2022-07-23T03:52:53;23.90;1.00
22235;DHT22;11286;45.596;5.284;2022-07-23T03:55:19;23.80;1.00
22235;DHT22;11286;45.596;5.284;2022-07-23T03:57:45;23.80;1.00
22235;DHT22;11286;45.596;5.284;2022-07-23T04:00:11;23.70;1.00
22235;DHT22;11286;45.596;5.284;2022-07-23T04:02:38;23.60;1.00
22235;DHT22;11286;45.596;5.284;2022-07-23T04:05:04;23.60;1.00
22235;DHT22;11286;45.596;5.284;2022-07-23T04:07:30;23.60;1.00
22235;DHT22;11286;45.596;5.284;2022-07-23T04:09:56;23.50;1.00
22235;DHT22;11286;45.596;5.284;2022-07-23T04:12:23;23.60;1.00
22235;DHT22;11286;45.596;5.284;2022-07-23T04:14:49;23.50;1.00
22235;DHT22;11286;45.596;5.284;2022-07-23T04:17:14;23.40;1.00
22235;DHT22;11286;45.596;5.284;2022-07-23T04:19:40;23.40;1.00
22235;DHT22;11286;45.596;5.284;2022-07-23T04:22:08;23.30;1.00
22235;DHT22;11286;45.596;5.284;2022-07-23T04:24:35;23.30;1.00
22235;DHT22;11286;45.596;5.284;2022-07-23T04:27:00;23.30;1.00
22235;DHT22;11286;45.596;5.284;2022-07-23T04:29:26;23.40;1.00
22235;DHT22;11286;45.596;5.284;2022-07-23T04:31:52;23.30;1.00
22235;DHT22;11286;45.596;5.284;2022-07-23T04:34:18;23.30;1.00
22235;DHT22;11286;45.596;5.284;2022-07-23T04:36:43;23.40;1.00
22235;DHT22;11286;45.596;5.284;2022-07-23T04:39:09;23.30;1.00
22235;DHT22;11286;45.596;5.284;2022-07-23T04:41:34;23.30;1.00
22235;DHT22;11286;45.596;5.284;2022-07-23T04:44:01;23.30;1.00
22235;DHT22;11286;45.596;5.284;2022-07-23T04:46:27;23.30;1.00
22235;DHT22;11286;45.596;5.284;2022-07-23T04:48:53;23.30;1.00
22235;DHT22;11286;45.596;5.284;2022-07-23T04:51:19;23.20;1.00
22235;DHT22;11286;45.596;5.284;2022-07-23T04:53:44;23.30;1.00
22235;DHT22;11286;45.596;5.284;2022-07-23T04:56:10;23.30;1.00
22235;DHT22;11286;45.596;5.284;2022-07-23T04:58:36;23.30;1.00
22235;DHT22;11286;45.596;5.284;2022-07-23T05:01:02;23.40;1.00
22235;DHT22;11286;45.596;5.284;2022-07-23T05:03:27;23.60;1.00
22235;DHT22;11286;45.596;5.284;2022-07-23T05:05:53;23.40;1.00
22235;DHT22;11286;45.596;5.284;2022-07-23T05:08:19;23.40;1.00
22235;DHT22;11286;45.596;5.284;2022-07-23T05:10:45;23.30;1.00
22235;DHT22;11286;45.596;5.284;2022-07-23T05:13:10;23.30;1.00
22235;DHT22;11286;45.596;5.284;2022-07-23T05:15:36;23.40;1.00
22235;DHT22;11286;45.596;5.284;2022-07-23T05:18:02;23.40;1.00
22235;DHT22;11286;45.596;5.284;2022-07-23T05:20:28;23.40;1.00
22235;DHT22;11286;45.596;5.284;2022-07-23T05:22:53;23.40;1.00
22235;DHT22;11286;45.596;5.284;2022-07-23T05:25:19;23.60;1.00
22235;DHT22;11286;45.596;5.284;2022-07-23T05:27:45;23.70;1.00
22235;DHT22;11286;45.596;5.284;2022-07-23T05:30:11;23.80;1.00
22235;DHT22;11286;45.596;5.284;2022-07-23T05:32:37;23.80;1.00
22235;DHT22;11286;45.596;5.284;2022-07-23T05:35:06;23.80;1.00
22235;DHT22;11286;45.596;5.284;2022-07-23T05:37:32;23.70;1.00
22235;DHT22;11286;45.596;5.284;2022-07-23T05:40:05;23.90;1.00
22235;DHT22;11286;45.596;5.284;2022-07-23T05:42:33;24.00;1.00
22235;DHT22;11286;45.596;5.284;2022-07-23T05:44:59;24.00;1.00
22235;DHT22;11286;45.596;5.284;2022-07-23T05:47:24;23.90;1.00
22235;DHT22;11286;45.596;5.284;2022-07-23T05:49:50;24.00;1.00
22235;DHT22;11286;45.596;5.284;2022-07-23T05:52:16;23.90;1.00
22235;DHT22;11286;45.596;5.284;2022-07-23T05:54:41;24.10;1.00
22235;DHT22;11286;45.596;5.284;2022-07-23T05:57:07;24.20;1.00
22235;DHT22;11286;45.596;5.284;2022-07-23T05:59:32;24.20;1.00
22235;DHT22;11286;45.596;5.284;2022-07-23T06:01:58;24.30;1.00
22235;DHT22;11286;45.596;5.284;2022-07-23T06:04:24;24.20;1.00
22235;DHT22;11286;45.596;5.284;2022-07-23T06:06:49;24.20;1.00
22235;DHT22;11286;45.596;5.284;2022-07-23T06:09:15;24.20;1.00
22235;DHT22;11286;45.596;5.284;2022-07-23T06:11:41;24.30;1.00
22235;DHT22;11286;45.596;5.284;2022-07-23T06:14:06;24.30;1.00
22235;DHT22;11286;45.596;5.284;2022-07-23T06:16:32;24.50;1.00
22235;DHT22;11286;45.596;5.284;2022-07-23T06:18:58;24.50;1.00
22235;DHT22;11286;45.596;5.284;2022-07-23T06:21:23;24.50;1.00
22235;DHT22;11286;45.596;5.284;2022-07-23T06:23:49;24.40;1.00
22235;DHT22;11286;45.596;5.284;2022-07-23T06:26:15;24.40;1.00
22235;DHT22;11286;45.596;5.284;2022-07-23T06:28:40;24.30;1.00
22235;DHT22;11286;45.596;5.284;2022-07-23T06:31:06;24.40;1.00
22235;DHT22;11286;45.596;5.284;2022-07-23T06:33:32;24.50;1.00
22235;DHT22;11286;45.596;5.284;2022-07-23T06:35:58;24.50;1.00
22235;DHT22;11286;45.596;5.284;2022-07-23T06:38:24;24.40;1.00
22235;DHT22;11286;45.596;5.284;2022-07-23T06:40:50;24.30;1.00
22235;DHT22;11286;45.596;5.284;2022-07-23T06:43:16;24.50;1.00
22235;DHT22;11286;45.596;5.284;2022-07-23T06:45:41;24.60;1.00
22235;DHT22;11286;45.596;5.284;2022-07-23T06:48:07;24.90;1.00
22235;DHT22;11286;45.596;5.284;2022-07-23T06:50:32;25.00;1.00
22235;DHT22;11286;45.596;5.284;2022-07-23T06:52:58;25.00;1.00
22235;DHT22;11286;45.596;5.284;2022-07-23T06:55:24;25.10;1.00
22235;DHT22;11286;45.596;5.284;2022-07-23T06:57:49;25.10;1.00
22235;DHT22;11286;45.596;5.284;2022-07-23T07:00:15;25.10;1.00
22235;DHT22;11286;45.596;5.284;2022-07-23T07:02:40;25.10;1.00
22235;DHT22;11286;45.596;5.284;2022-07-23T07:05:06;25.10;1.00
22235;DHT22;11286;45.596;5.284;2022-07-23T07:07:33;25.00;1.00
22235;DHT22;11286;45.596;5.284;2022-07-23T07:09:59;25.30;1.00
22235;DHT22;11286;45.596;5.284;2022-07-23T07:12:24;25.20;1.00
22235;DHT22;11286;45.596;5.284;2022-07-23T07:14:50;25.20;1.00
22235;DHT22;11286;45.596;5.284;2022-07-23T07:17:16;25.10;1.00
22235;DHT22;11286;45.596;5.284;2022-07-23T07:19:41;25.20;1.00
22235;DHT22;11286;45.596;5.284;2022-07-23T07:22:07;25.40;1.00
22235;DHT22;11286;45.596;5.284;2022-07-23T07:24:33;25.50;1.00
22235;DHT22;11286;45.596;5.284;2022-07-23T07:26:58;25.70;1.00
22235;DHT22;11286;45.596;5.284;2022-07-23T07:29:24;25.70;1.00
22235;DHT22;11286;45.596;5.284;2022-07-23T07:31:50;25.70;1.00
22235;DHT22;11286;45.596;5.284;2022-07-23T07:34:15;25.60;1.00
22235;DHT22;11286;45.596;5.284;2022-07-23T07:36:41;25.50;1.00
22235;DHT22;11286;45.596;5.284;2022-07-23T07:39:08;25.60;1.00
22235;DHT22;11286;45.596;5.284;2022-07-23T07:41:36;25.70;1.00
22235;DHT22;11286;45.596;5.284;2022-07-23T07:44:01;25.70;1.00
22235;DHT22;11286;45.596;5.284;2022-07-23T07:46:27;25.80;1.00
22235;DHT22;11286;45.596;5.284;2022-07-23T07:48:53;26.00;1.00
22235;DHT22;11286;45.596;5.284;2022-07-23T07:51:19;26.10;1.00
22235;DHT22;11286;45.596;5.284;2022-07-23T07:53:45;26.20;1.00
22235;DHT22;11286;45.596;5.284;2022-07-23T07:56:10;26.30;1.00
22235;DHT22;11286;45.596;5.284;2022-07-23T07:58:36;26.30;1.00
22235;DHT22;11286;45.596;5.284;2022-07-23T08:01:01;26.30;1.00
22235;DHT22;11286;45.596;5.284;2022-07-23T08:03:28;26.60;1.00
22235;DHT22;11286;45.596;5.284;2022-07-23T08:05:53;26.90;1.00
22235;DHT22;11286;45.596;5.284;2022-07-23T08:08:19;26.90;1.00
22235;DHT22;11286;45.596;5.284;2022-07-23T08:10:45;27.10;1.00
22235;DHT22;11286;45.596;5.284;2022-07-23T08:13:13;26.80;1.00
22235;DHT22;11286;45.596;5.284;2022-07-23T08:15:40;26.90;1.00
22235;DHT22;11286;45.596;5.284;2022-07-23T08:18:06;26.80;1.00
22235;DHT22;11286;45.596;5.284;2022-07-23T08:20:32;26.70;1.00
22235;DHT22;11286;45.596;5.284;2022-07-23T08:23:00;26.80;1.00
22235;DHT22;11286;45.596;5.284;2022-07-23T08:25:32;26.90;1.00
22235;DHT22;11286;45.596;5.284;2022-07-23T08:28:00;27.00;1.00
22235;DHT22;11286;45.596;5.284;2022-07-23T08:30:26;27.30;1.00
22235;DHT22;11286;45.596;5.284;2022-07-23T08:33:01;27.30;1.00
22235;DHT22;11286;45.596;5.284;2022-07-23T08:35:33;27.00;1.00
22235;DHT22;11286;45.596;5.284;2022-07-23T08:38:01;27.10;1.00
22235;DHT22;11286;45.596;5.284;2022-07-23T08:40:30;27.40;1.00
22235;DHT22;11286;45.596;5.284;2022-07-23T08:42:56;27.30;1.00
22235;DHT22;11286;45.596;5.284;2022-07-23T08:45:24;27.60;1.00
22235;DHT22;11286;45.596;5.284;2022-07-23T08:47:54;27.80;1.00
22235;DHT22;11286;45.596;5.284;2022-07-23T08:50:22;28.00;1.00
22235;DHT22;11286;45.596;5.284;2022-07-23T08:52:51;28.00;1.00
22235;DHT22;11286;45.596;5.284;2022-07-23T08:55:20;28.40;1.00
22235;DHT22;11286;45.596;5.284;2022-07-23T08:57:48;28.20;1.00
22235;DHT22;11286;45.596;5.284;2022-07-23T09:00:15;28.40;1.00
22235;DHT22;11286;45.596;5.284;2022-07-23T09:02:42;28.60;1.00
22235;DHT22;11286;45.596;5.284;2022-07-23T09:05:10;28.50;1.00
22235;DHT22;11286;45.596;5.284;2022-07-23T09:08:11;28.60;1.00
22235;DHT22;11286;45.596;5.284;2022-07-23T09:16:08;28.40;1.00
22235;DHT22;11286;45.596;5.284;2022-07-23T09:18:41;28.50;1.00
22235;DHT22;11286;45.596;5.284;2022-07-23T09:26:19;28.80;1.00
22235;DHT22;11286;45.596;5.284;2022-07-23T09:28:55;28.80;1.00
22235;DHT22;11286;45.596;5.284;2022-07-23T09:31:22;28.90;1.00
22235;DHT22;11286;45.596;5.284;2022-07-23T09:33:48;28.80;1.00
22235;DHT22;11286;45.596;5.284;2022-07-23T09:36:14;29.30;1.00
22235;DHT22;11286;45.596;5.284;2022-07-23T09:38:50;29.80;1.00
22235;DHT22;11286;45.596;5.284;2022-07-23T09:41:16;30.40;1.00
22235;DHT22;11286;45.596;5.284;2022-07-23T09:43:42;30.20;1.00
22235;DHT22;11286;45.596;5.284;2022-07-23T09:46:27;29.60;1.00
22235;DHT22;11286;45.596;5.284;2022-07-23T09:48:54;30.10;1.00
22235;DHT22;11286;45.596;5.284;2022-07-23T09:51:22;30.10;1.00
22235;DHT22;11286;45.596;5.284;2022-07-23T09:53:53;29.90;1.00
22235;DHT22;11286;45.596;5.284;2022-07-23T09:56:20;29.60;1.00
22235;DHT22;11286;45.596;5.284;2022-07-23T09:58:50;29.30;1.00
22235;DHT22;11286;45.596;5.284;2022-07-23T10:01:28;30.30;1.00
22235;DHT22;11286;45.596;5.284;2022-07-23T10:03:54;30.90;1.00
22235;DHT22;11286;45.596;5.284;2022-07-23T10:06:21;31.90;1.00
22235;DHT22;11286;45.596;5.284;2022-07-23T10:08:48;32.10;1.00
22235;DHT22;11286;45.596;5.284;2022-07-23T10:11:16;32.10;1.00
22235;DHT22;11286;45.596;5.284;2022-07-23T10:13:42;31.50;1.00
22235;DHT22;11286;45.596;5.284;2022-07-23T10:16:21;31.80;1.00
22235;DHT22;11286;45.596;5.284;2022-07-23T10:18:48;31.50;1.00
22235;DHT22;11286;45.596;5.284;2022-07-23T10:21:22;30.80;1.00
22235;DHT22;11286;45.596;5.284;2022-07-23T10:26:41;30.30;1.00
22235;DHT22;11286;45.596;5.284;2022-07-23T10:29:38;31.00;1.00
22235;DHT22;11286;45.596;5.284;2022-07-23T10:35:03;31.00;1.00
22235;DHT22;11286;45.596;5.284;2022-07-23T10:37:39;31.20;1.00
22235;DHT22;11286;45.596;5.284;2022-07-23T10:40:17;32.20;1.00
22235;DHT22;11286;45.596;5.284;2022-07-23T10:42:45;32.30;1.00
22235;DHT22;11286;45.596;5.284;2022-07-23T10:45:33;32.60;1.00
22235;DHT22;11286;45.596;5.284;2022-07-23T10:48:15;32.60;1.00
22235;DHT22;11286;45.596;5.284;2022-07-23T10:50:42;32.50;1.00
22235;DHT22;11286;45.596;5.284;2022-07-23T10:53:16;32.00;1.00
22235;DHT22;11286;45.596;5.284;2022-07-23T10:55:48;31.70;1.00
22235;DHT22;11286;45.596;5.284;2022-07-23T10:58:22;31.70;1.00
22235;DHT22;11286;45.596;5.284;2022-07-23T11:00:48;31.90;1.00
22235;DHT22;11286;45.596;5.284;2022-07-23T11:03:40;32.20;1.00
22235;DHT22;11286;45.596;5.284;2022-07-23T11:06:06;32.30;1.00
22235;DHT22;11286;45.596;5.284;2022-07-23T11:08:32;32.50;1.00
22235;DHT22;11286;45.596;5.284;2022-07-23T11:13:32;33.10;1.00
22235;DHT22;11286;45.596;5.284;2022-07-23T11:29:39;32.70;1.00
22235;DHT22;11286;45.596;5.284;2022-07-23T11:32:18;32.70;1.00
22235;DHT22;11286;45.596;5.284;2022-07-23T11:34:46;32.70;1.00
22235;DHT22;11286;45.596;5.284;2022-07-23T11:37:46;33.30;1.00
22235;DHT22;11286;45.596;5.284;2022-07-23T11:40:13;33.90;1.00
22235;DHT22;11286;45.596;5.284;2022-07-23T11:42:55;33.20;1.00
22235;DHT22;11286;45.596;5.284;2022-07-23T11:45:21;34.30;1.00
22235;DHT22;11286;45.596;5.284;2022-07-23T11:47:47;35.70;1.00
22235;DHT22;11286;45.596;5.284;2022-07-23T11:50:13;37.40;1.00
22235;DHT22;11286;45.596;5.284;2022-07-23T11:52:39;36.90;1.00
22235;DHT22;11286;45.596;5.284;2022-07-23T11:55:08;35.30;1.00
22235;DHT22;11286;45.596;5.284;2022-07-23T11:57:36;34.50;1.00
22235;DHT22;11286;45.596;5.284;2022-07-23T12:00:11;33.70;1.00
22235;DHT22;11286;45.596;5.284;2022-07-23T12:02:38;32.80;1.00
22235;DHT22;11286;45.596;5.284;2022-07-23T12:05:05;32.20;1.00
22235;DHT22;11286;45.596;5.284;2022-07-23T12:10:11;32.30;1.00
22235;DHT22;11286;45.596;5.284;2022-07-23T12:12:39;33.20;1.00
22235;DHT22;11286;45.596;5.284;2022-07-23T12:15:06;34.30;1.00
22235;DHT22;11286;45.596;5.284;2022-07-23T12:17:35;35.90;1.00
22235;DHT22;11286;45.596;5.284;2022-07-23T12:20:03;38.10;1.00
22235;DHT22;11286;45.596;5.284;2022-07-23T12:22:42;39.40;1.00
22235;DHT22;11286;45.596;5.284;2022-07-23T12:25:18;39.00;1.00
22235;DHT22;11286;45.596;5.284;2022-07-23T12:27:46;39.80;1.00
22235;DHT22;11286;45.596;5.284;2022-07-23T12:30:41;38.30;1.00
22235;DHT22;11286;45.596;5.284;2022-07-23T12:33:09;37.80;1.00
22235;DHT22;11286;45.596;5.284;2022-07-23T12:35:40;38.70;1.00
22235;DHT22;11286;45.596;5.284;2022-07-23T12:38:09;37.70;1.00
22235;DHT22;11286;45.596;5.284;2022-07-23T12:40:47;38.60;1.00
22235;DHT22;11286;45.596;5.284;2022-07-23T12:43:20;39.80;1.00
22235;DHT22;11286;45.596;5.284;2022-07-23T12:45:49;39.00;1.00
22235;DHT22;11286;45.596;5.284;2022-07-23T12:48:25;40.20;1.00
22235;DHT22;11286;45.596;5.284;2022-07-23T12:51:00;38.70;1.00
22235;DHT22;11286;45.596;5.284;2022-07-23T12:53:30;37.90;1.00
22235;DHT22;11286;45.596;5.284;2022-07-23T12:58:27;36.50;1.00
22235;DHT22;11286;45.596;5.284;2022-07-23T13:01:05;36.20;1.00
22235;DHT22;11286;45.596;5.284;2022-07-23T13:03:39;36.60;1.00
22235;DHT22;11286;45.596;5.284;2022-07-23T13:06:08;36.30;1.00
22235;DHT22;11286;45.596;5.284;2022-07-23T13:08:35;36.40;1.00
22235;DHT22;11286;45.596;5.284;2022-07-23T13:11:01;37.40;1.00
22235;DHT22;11286;45.596;5.284;2022-07-23T13:13:29;39.40;1.00
22235;DHT22;11286;45.596;5.284;2022-07-23T13:15:56;40.70;1.00
22235;DHT22;11286;45.596;5.284;2022-07-23T13:18:22;41.10;1.00
22235;DHT22;11286;45.596;5.284;2022-07-23T13:20:48;41.70;1.00
22235;DHT22;11286;45.596;5.284;2022-07-23T13:23:15;42.20;1.00
22235;DHT22;11286;45.596;5.284;2022-07-23T13:25:41;41.90;1.00
22235;DHT22;11286;45.596;5.284;2022-07-23T13:28:06;41.50;1.00
22235;DHT22;11286;45.596;5.284;2022-07-23T13:30:32;41.20;1.00
22235;DHT22;11286;45.596;5.284;2022-07-23T13:32:59;39.50;1.00
22235;DHT22;11286;45.596;5.284;2022-07-23T13:35:24;38.80;1.00
22235;DHT22;11286;45.596;5.284;2022-07-23T13:37:50;40.50;1.00
22235;DHT22;11286;45.596;5.284;2022-07-23T13:40:16;40.50;1.00
22235;DHT22;11286;45.596;5.284;2022-07-23T13:42:41;38.80;1.00
22235;DHT22;11286;45.596;5.284;2022-07-23T13:45:07;37.90;1.00
22235;DHT22;11286;45.596;5.284;2022-07-23T13:47:33;37.10;1.00
22235;DHT22;11286;45.596;5.284;2022-07-23T13:49:59;37.60;1.00
22235;DHT22;11286;45.596;5.284;2022-07-23T13:52:25;39.30;1.00
22235;DHT22;11286;45.596;5.284;2022-07-23T13:54:51;38.00;1.00
22235;DHT22;11286;45.596;5.284;2022-07-23T13:57:16;37.20;1.00
22235;DHT22;11286;45.596;5.284;2022-07-23T13:59:42;36.90;1.00
22235;DHT22;11286;45.596;5.284;2022-07-23T14:02:08;38.20;1.00
22235;DHT22;11286;45.596;5.284;2022-07-23T14:04:34;37.50;1.00
22235;DHT22;11286;45.596;5.284;2022-07-23T14:07:00;38.00;1.00
22235;DHT22;11286;45.596;5.284;2022-07-23T14:09:27;38.10;1.00
22235;DHT22;11286;45.596;5.284;2022-07-23T14:11:53;38.00;1.00
22235;DHT22;11286;45.596;5.284;2022-07-23T14:14:18;38.50;1.00
22235;DHT22;11286;45.596;5.284;2022-07-23T14:16:44;39.30;1.00
22235;DHT22;11286;45.596;5.284;2022-07-23T14:19:11;39.60;1.00
22235;DHT22;11286;45.596;5.284;2022-07-23T14:21:37;38.80;1.00
22235;DHT22;11286;45.596;5.284;2022-07-23T14:24:03;37.10;1.00
22235;DHT22;11286;45.596;5.284;2022-07-23T14:26:29;36.30;1.00
22235;DHT22;11286;45.596;5.284;2022-07-23T14:28:55;36.00;1.00
22235;DHT22;11286;45.596;5.284;2022-07-23T14:31:21;35.80;1.00
22235;DHT22;11286;45.596;5.284;2022-07-23T14:33:47;36.70;1.00
22235;DHT22;11286;45.596;5.284;2022-07-23T14:36:13;37.50;1.00
22235;DHT22;11286;45.596;5.284;2022-07-23T14:38:39;37.30;1.00
22235;DHT22;11286;45.596;5.284;2022-07-23T14:41:05;37.20;1.00
22235;DHT22;11286;45.596;5.284;2022-07-23T14:43:32;37.10;1.00
22235;DHT22;11286;45.596;5.284;2022-07-23T14:45:58;37.60;1.00
22235;DHT22;11286;45.596;5.284;2022-07-23T14:48:24;36.80;1.00
22235;DHT22;11286;45.596;5.284;2022-07-23T14:50:49;36.90;1.00
22235;DHT22;11286;45.596;5.284;2022-07-23T14:53:15;36.90;1.00
22235;DHT22;11286;45.596;5.284;2022-07-23T14:55:41;37.10;1.00
22235;DHT22;11286;45.596;5.284;2022-07-23T14:58:06;36.80;1.00
22235;DHT22;11286;45.596;5.284;2022-07-23T15:00:32;36.60;1.00
22235;DHT22;11286;45.596;5.284;2022-07-23T15:02:58;37.00;1.00
22235;DHT22;11286;45.596;5.284;2022-07-23T15:05:24;37.10;1.00
22235;DHT22;11286;45.596;5.284;2022-07-23T15:07:50;37.50;1.00
22235;DHT22;11286;45.596;5.284;2022-07-23T15:10:15;37.70;1.00
22235;DHT22;11286;45.596;5.284;2022-07-23T15:12:41;37.90;1.00
22235;DHT22;11286;45.596;5.284;2022-07-23T15:15:07;37.10;1.00
22235;DHT22;11286;45.596;5.284;2022-07-23T15:17:33;36.90;1.00
22235;DHT22;11286;45.596;5.284;2022-07-23T15:19:59;37.20;1.00
22235;DHT22;11286;45.596;5.284;2022-07-23T15:22:25;36.90;1.00
22235;DHT22;11286;45.596;5.284;2022-07-23T15:24:51;36.90;1.00
22235;DHT22;11286;45.596;5.284;2022-07-23T15:27:16;36.70;1.00
22235;DHT22;11286;45.596;5.284;2022-07-23T15:29:43;36.70;1.00
22235;DHT22;11286;45.596;5.284;2022-07-23T15:32:10;36.60;1.00
22235;DHT22;11286;45.596;5.284;2022-07-23T15:34:37;36.00;1.00
22235;DHT22;11286;45.596;5.284;2022-07-23T15:37:03;36.10;1.00
22235;DHT22;11286;45.596;5.284;2022-07-23T15:39:31;36.30;1.00
22235;DHT22;11286;45.596;5.284;2022-07-23T15:41:58;36.50;1.00
22235;DHT22;11286;45.596;5.284;2022-07-23T15:44:25;36.30;1.00
22235;DHT22;11286;45.596;5.284;2022-07-23T15:46:50;36.00;1.00
22235;DHT22;11286;45.596;5.284;2022-07-23T15:49:16;36.00;1.00
22235;DHT22;11286;45.596;5.284;2022-07-23T15:51:42;35.90;1.00
22235;DHT22;11286;45.596;5.284;2022-07-23T15:54:08;36.00;1.00
22235;DHT22;11286;45.596;5.284;2022-07-23T15:56:33;35.70;1.00
22235;DHT22;11286;45.596;5.284;2022-07-23T15:58:59;35.70;1.00
22235;DHT22;11286;45.596;5.284;2022-07-23T16:01:25;35.40;1.00
22235;DHT22;11286;45.596;5.284;2022-07-23T16:03:51;35.70;1.00
22235;DHT22;11286;45.596;5.284;2022-07-23T16:06:16;35.40;1.00
22235;DHT22;11286;45.596;5.284;2022-07-23T16:08:42;35.80;1.00
22235;DHT22;11286;45.596;5.284;2022-07-23T16:11:08;35.70;1.00
22235;DHT22;11286;45.596;5.284;2022-07-23T16:13:33;35.50;1.00
22235;DHT22;11286;45.596;5.284;2022-07-23T16:16:00;35.60;1.00
22235;DHT22;11286;45.596;5.284;2022-07-23T16:18:26;35.40;1.00
22235;DHT22;11286;45.596;5.284;2022-07-23T16:20:52;35.50;1.00
22235;DHT22;11286;45.596;5.284;2022-07-23T16:23:18;35.50;1.00